createdAt,value
2023-02-02T00:00:15.774Z,0.00
2023-02-02T00:01:15.734Z,0.00
2023-02-02T00:02:15.756Z,0.00
2023-02-02T00:03:15.743Z,0.00
2023-02-02T00:04:15.830Z,0.00
2023-02-02T00:05:15.775Z,0.00
2023-02-02T00:06:15.721Z,0.00
2023-02-02T00:07:15.754Z,0.00
2023-02-02T00:08:15.703Z,0.00
2023-02-02T00:09:15.680Z,0.00
2023-02-02T00:10:15.679Z,0.00
2023-02-02T00:11:15.620Z,0.00
2023-02-02T00:12:15.683Z,0.00
2023-02-02T00:13:15.630Z,0.00
2023-02-02T00:14:15.629Z,0.00
2023-02-02T00:15:15.586Z,0.00
2023-02-02T00:16:15.645Z,0.00
2023-02-02T00:17:15.563Z,0.00
2023-02-02T00:18:15.592Z,0.00
2023-02-02T00:19:15.576Z,0.00
2023-02-02T00:20:15.567Z,0.00
2023-02-02T00:21:15.529Z,0.00
2023-02-02T00:22:15.540Z,0.00
2023-02-02T00:23:15.566Z,0.00
2023-02-02T00:24:15.547Z,0.00
2023-02-02T00:25:15.490Z,0.00
2023-02-02T00:26:15.511Z,0.00
2023-02-02T00:27:15.463Z,0.00
2023-02-02T00:28:15.488Z,0.00
2023-02-02T00:29:15.474Z,0.00
2023-02-02T00:30:15.480Z,0.00
2023-02-02T00:31:15.458Z,0.00
2023-02-02T00:32:15.422Z,0.00
2023-02-02T00:33:15.388Z,0.00
2023-02-02T00:34:15.433Z,0.00
2023-02-02T00:35:15.374Z,0.00
2023-02-02T00:36:15.380Z,0.00
2023-02-02T00:37:15.352Z,0.00
2023-02-02T00:38:15.371Z,0.00
2023-02-02T00:39:15.334Z,0.00
2023-02-02T00:40:15.351Z,0.00
2023-02-02T00:41:16.041Z,0.00
2023-02-02T00:42:15.386Z,0.00
2023-02-02T00:43:15.279Z,0.00
2023-02-02T00:44:15.302Z,0.00
2023-02-02T00:45:15.275Z,0.00
2023-02-02T00:46:15.299Z,0.00
2023-02-02T00:47:15.239Z,0.00
2023-02-02T00:48:15.243Z,0.00
2023-02-02T00:49:15.330Z,0.00
2023-02-02T00:50:16.132Z,0.00
2023-02-02T00:51:15.256Z,0.00
2023-02-02T00:52:15.207Z,0.00
2023-02-02T00:53:15.183Z,0.00
2023-02-02T00:54:15.182Z,0.00
2023-02-02T00:55:15.163Z,0.00
2023-02-02T00:56:15.162Z,0.00
2023-02-02T00:57:15.147Z,0.00
2023-02-02T00:58:15.159Z,0.00
2023-02-02T00:59:15.135Z,0.00
2023-02-02T01:00:15.119Z,0.00
2023-02-02T01:01:15.130Z,0.00
2023-02-02T01:02:15.114Z,0.00
2023-02-02T01:03:15.066Z,0.00
2023-02-02T01:04:15.064Z,0.00
2023-02-02T01:05:15.079Z,0.00
2023-02-02T01:06:15.869Z,0.00
2023-02-02T01:07:15.068Z,0.00
2023-02-02T01:08:15.077Z,0.00
2023-02-02T01:09:14.996Z,0.00
2023-02-02T01:10:15.034Z,0.00
2023-02-02T01:11:15.041Z,0.00
2023-02-02T01:12:14.988Z,0.00
2023-02-02T01:13:15.004Z,0.00
2023-02-02T01:14:14.954Z,0.00
2023-02-02T01:15:14.990Z,0.00
2023-02-02T01:16:14.977Z,0.00
2023-02-02T01:17:14.937Z,0.00
2023-02-02T01:18:14.936Z,0.00
2023-02-02T01:19:15.154Z,0.00
2023-02-02T01:20:14.925Z,0.00
2023-02-02T01:21:14.901Z,0.00
2023-02-02T01:22:15.094Z,0.00
2023-02-02T01:23:15.798Z,0.00
2023-02-02T01:24:15.694Z,0.00
2023-02-02T01:25:14.882Z,0.00
2023-02-02T01:26:14.839Z,0.00
2023-02-02T01:27:14.802Z,0.00
2023-02-02T01:28:14.822Z,0.00
2023-02-02T01:29:14.776Z,0.00
2023-02-02T01:30:14.808Z,0.00
2023-02-02T01:31:14.827Z,0.00
2023-02-02T01:32:36.054Z,0.00
2023-02-02T01:33:15.271Z,0.00
2023-02-02T01:34:15.515Z,0.00
2023-02-02T01:35:14.723Z,0.00
2023-02-02T01:36:14.782Z,0.00
2023-02-02T01:37:14.702Z,0.00
2023-02-02T01:38:14.701Z,0.00
2023-02-02T01:39:14.667Z,0.00
2023-02-02T01:40:14.709Z,0.00
2023-02-02T01:41:14.657Z,0.00
2023-02-02T01:42:14.714Z,0.00
2023-02-02T01:43:15.414Z,0.00
2023-02-02T01:44:15.578Z,0.00
2023-02-02T01:45:14.620Z,0.00
2023-02-02T01:46:14.674Z,0.00
2023-02-02T01:47:14.622Z,0.00
2023-02-02T01:48:14.590Z,0.00
2023-02-02T01:49:14.567Z,0.00
2023-02-02T01:50:14.569Z,0.00
2023-02-02T01:51:14.550Z,0.00
2023-02-02T01:52:14.620Z,0.00
2023-02-02T01:53:14.539Z,0.00
2023-02-02T01:54:14.551Z,0.00
2023-02-02T01:55:14.516Z,0.00
2023-02-02T01:56:14.548Z,0.00
2023-02-02T01:57:14.602Z,0.00
2023-02-02T01:58:14.502Z,0.00
2023-02-02T01:59:14.476Z,0.00
2023-02-02T02:00:14.463Z,0.00
2023-02-02T02:01:14.473Z,0.00
2023-02-02T02:02:14.511Z,0.00
2023-02-02T02:03:14.399Z,0.00
2023-02-02T02:04:14.438Z,0.00
2023-02-02T02:05:14.387Z,0.00
2023-02-02T02:06:14.475Z,0.00
2023-02-02T02:07:14.362Z,0.00
2023-02-02T02:08:14.397Z,0.00
2023-02-02T02:09:14.411Z,0.00
2023-02-02T02:10:14.367Z,0.00
2023-02-02T02:11:14.321Z,0.00
2023-02-02T02:12:14.366Z,0.00
2023-02-02T02:13:14.290Z,0.00
2023-02-02T02:14:14.333Z,0.00
2023-02-02T02:15:14.286Z,0.00
2023-02-02T02:16:14.311Z,0.00
2023-02-02T02:17:14.261Z,0.00
2023-02-02T02:18:14.299Z,0.00
2023-02-02T02:19:14.245Z,0.00
2023-02-02T02:20:14.219Z,0.00
2023-02-02T02:21:14.274Z,0.00
2023-02-02T02:22:14.203Z,0.00
2023-02-02T02:23:14.206Z,0.00
2023-02-02T02:24:14.202Z,0.00
2023-02-02T02:25:14.210Z,0.00
2023-02-02T02:26:14.147Z,0.00
2023-02-02T02:27:14.164Z,0.00
2023-02-02T02:28:14.135Z,0.00
2023-02-02T02:29:14.168Z,0.00
2023-02-02T02:30:14.107Z,0.00
2023-02-02T02:31:14.203Z,0.00
2023-02-02T02:32:14.238Z,0.00
2023-02-02T02:33:14.246Z,0.00
2023-02-02T02:34:14.259Z,0.00
2023-02-02T02:35:14.087Z,0.00
2023-02-02T02:36:14.053Z,0.00
2023-02-02T02:37:14.065Z,0.00
2023-02-02T02:38:14.028Z,0.00
2023-02-02T02:39:14.024Z,0.00
2023-02-02T02:40:13.985Z,0.00
2023-02-02T02:41:14.016Z,0.00
2023-02-02T02:42:13.977Z,0.00
2023-02-02T02:43:13.988Z,0.00
2023-02-02T02:44:13.945Z,0.00
2023-02-02T02:45:14.015Z,0.00
2023-02-02T02:46:14.749Z,0.00
2023-02-02T02:47:14.005Z,0.00
2023-02-02T02:48:13.905Z,0.00
2023-02-02T02:49:13.912Z,0.00
2023-02-02T02:50:13.882Z,0.00
2023-02-02T02:51:13.965Z,0.00
2023-02-02T02:52:13.873Z,0.00
2023-02-02T02:53:13.886Z,0.00
2023-02-02T02:54:13.852Z,0.00
2023-02-02T02:55:13.844Z,0.00
2023-02-02T02:56:13.846Z,0.00
2023-02-02T02:57:13.845Z,0.00
2023-02-02T02:58:13.785Z,0.00
2023-02-02T02:59:13.822Z,0.00
2023-02-02T03:00:13.780Z,0.00
2023-02-02T03:01:13.793Z,0.00
2023-02-02T03:02:13.767Z,0.00
2023-02-02T03:03:13.755Z,0.00
2023-02-02T03:04:13.730Z,0.00
2023-02-02T03:05:13.747Z,0.00
2023-02-02T03:06:13.739Z,0.00
2023-02-02T03:07:13.718Z,0.00
2023-02-02T03:08:13.693Z,0.00
2023-02-02T03:09:13.733Z,0.00
2023-02-02T03:10:13.661Z,0.00
2023-02-02T03:11:13.998Z,0.00
2023-02-02T03:12:13.654Z,0.00
2023-02-02T03:13:13.688Z,0.00
2023-02-02T03:14:13.621Z,0.00
2023-02-02T03:15:13.615Z,0.00
2023-02-02T03:16:13.621Z,0.00
2023-02-02T03:17:13.618Z,0.00
2023-02-02T03:18:13.570Z,0.00
2023-02-02T03:19:13.579Z,0.00
2023-02-02T03:20:13.554Z,0.00
2023-02-02T03:21:13.561Z,0.00
2023-02-02T03:22:13.534Z,0.00
2023-02-02T03:23:13.534Z,0.00
2023-02-02T03:24:13.502Z,0.00
2023-02-02T03:25:13.539Z,0.00
2023-02-02T03:26:13.480Z,0.00
2023-02-02T03:27:13.524Z,0.00
2023-02-02T03:28:13.450Z,0.00
2023-02-02T03:29:13.500Z,0.00
2023-02-02T03:30:13.450Z,0.00
2023-02-02T03:31:13.525Z,0.00
2023-02-02T03:32:13.480Z,0.00
2023-02-02T03:33:13.459Z,0.00
2023-02-02T03:34:13.415Z,0.00
2023-02-02T03:35:13.410Z,0.00
2023-02-02T03:36:13.385Z,0.00
2023-02-02T03:37:13.370Z,0.00
2023-02-02T03:38:13.388Z,0.00
2023-02-02T03:39:13.351Z,0.00
2023-02-02T03:40:13.332Z,0.00
2023-02-02T03:41:13.349Z,0.00
2023-02-02T03:42:13.311Z,0.00
2023-02-02T03:43:13.311Z,0.00
2023-02-02T03:44:13.295Z,0.00
2023-02-02T03:45:13.320Z,0.00
2023-02-02T03:46:13.551Z,0.00
2023-02-02T03:47:13.636Z,0.00
2023-02-02T03:48:13.264Z,0.00
2023-02-02T03:49:13.250Z,0.00
2023-02-02T03:50:13.240Z,0.00
2023-02-02T03:51:13.208Z,0.00
2023-02-02T03:52:13.181Z,0.00
2023-02-02T03:53:13.196Z,0.00
2023-02-02T03:54:13.206Z,0.00
2023-02-02T03:55:13.230Z,0.00
2023-02-02T03:56:13.148Z,0.00
2023-02-02T03:57:13.187Z,0.00
2023-02-02T03:58:13.108Z,0.00
2023-02-02T03:59:13.131Z,0.00
2023-02-02T04:00:13.171Z,0.00
2023-02-02T04:01:13.233Z,0.00
2023-02-02T04:02:13.141Z,0.00
2023-02-02T04:03:13.094Z,0.00
2023-02-02T04:04:13.076Z,0.00
2023-02-02T04:05:13.102Z,0.00
2023-02-02T04:06:13.027Z,0.00
2023-02-02T04:07:13.870Z,0.00
2023-02-02T04:08:12.996Z,0.00
2023-02-02T04:09:13.036Z,0.00
2023-02-02T04:10:13.027Z,0.00
2023-02-02T04:11:13.039Z,0.00
2023-02-02T04:12:12.992Z,0.00
2023-02-02T04:13:12.961Z,0.00
2023-02-02T04:14:12.956Z,0.00
2023-02-02T04:15:13.702Z,0.00
2023-02-02T04:16:13.013Z,0.00
2023-02-02T04:17:20.527Z,0.00
2023-02-02T04:18:12.914Z,0.00
2023-02-02T04:19:12.928Z,0.00
2023-02-02T04:20:12.915Z,0.00
2023-02-02T04:21:12.898Z,0.00
2023-02-02T04:22:12.873Z,0.00
2023-02-02T04:23:12.994Z,0.00
2023-02-02T04:24:12.832Z,0.00
2023-02-02T04:25:12.849Z,0.00
2023-02-02T04:26:12.814Z,0.00
2023-02-02T04:27:12.852Z,0.00
2023-02-02T04:28:12.799Z,0.00
2023-02-02T04:29:12.860Z,0.00
2023-02-02T04:30:12.780Z,0.00
2023-02-02T04:31:12.998Z,0.00
2023-02-02T04:32:12.748Z,0.00
2023-02-02T04:33:13.171Z,0.00
2023-02-02T04:34:12.713Z,0.00
2023-02-02T04:35:12.731Z,0.00
2023-02-02T04:36:12.709Z,0.00
2023-02-02T04:37:12.719Z,0.00
2023-02-02T04:38:12.681Z,0.00
2023-02-02T04:39:12.703Z,0.00
2023-02-02T04:40:12.660Z,0.00
2023-02-02T04:41:12.680Z,0.00
2023-02-02T04:42:12.710Z,0.00
2023-02-02T04:43:12.618Z,0.00
2023-02-02T04:44:12.620Z,0.00
2023-02-02T04:45:12.620Z,0.00
2023-02-02T04:46:12.659Z,0.00
2023-02-02T04:47:12.649Z,0.00
2023-02-02T04:48:12.621Z,0.00
2023-02-02T04:49:12.628Z,0.00
2023-02-02T04:50:12.556Z,0.00
2023-02-02T04:51:12.613Z,0.00
2023-02-02T04:52:12.578Z,0.00
2023-02-02T04:53:12.528Z,0.00
2023-02-02T04:54:12.500Z,0.00
2023-02-02T04:55:12.517Z,0.00
2023-02-02T04:56:12.504Z,0.00
2023-02-02T04:57:12.570Z,0.00
2023-02-02T04:58:12.620Z,0.00
2023-02-02T04:59:12.490Z,0.00
2023-02-02T05:00:12.512Z,0.00
2023-02-02T05:01:12.515Z,0.00
2023-02-02T05:02:12.486Z,0.00
2023-02-02T05:03:12.470Z,0.00
2023-02-02T05:04:12.483Z,0.00
2023-02-02T05:05:12.429Z,0.00
2023-02-02T05:06:14.713Z,0.00
2023-02-02T05:07:12.462Z,0.00
2023-02-02T05:08:12.488Z,0.00
2023-02-02T05:09:12.503Z,0.00
2023-02-02T05:10:12.310Z,0.00
2023-02-02T05:11:12.399Z,0.00
2023-02-02T05:12:12.359Z,0.00
2023-02-02T05:13:12.318Z,0.00
2023-02-02T05:14:12.306Z,0.00
2023-02-02T05:15:12.351Z,0.00
2023-02-02T05:16:12.300Z,0.00
2023-02-02T05:17:12.336Z,0.00
2023-02-02T05:18:12.312Z,0.00
2023-02-02T05:19:12.275Z,0.00
2023-02-02T05:20:12.249Z,0.00
2023-02-02T05:21:12.281Z,0.00
2023-02-02T05:22:12.220Z,0.00
2023-02-02T05:23:12.236Z,0.00
2023-02-02T05:24:12.195Z,0.00
2023-02-02T05:25:12.331Z,0.00
2023-02-02T05:26:12.251Z,0.00
2023-02-02T05:27:12.250Z,0.00
2023-02-02T05:28:12.202Z,0.00
2023-02-02T05:29:12.217Z,0.00
2023-02-02T05:30:12.132Z,0.00
2023-02-02T05:31:12.262Z,0.00
2023-02-02T05:32:12.112Z,0.00
2023-02-02T05:33:12.141Z,0.00
2023-02-02T05:34:12.051Z,0.00
2023-02-02T05:35:12.134Z,0.00
2023-02-02T05:36:12.027Z,0.00
2023-02-02T05:37:12.271Z,0.00
2023-02-02T05:38:12.107Z,0.00
2023-02-02T05:39:12.104Z,0.00
2023-02-02T05:40:12.037Z,0.00
2023-02-02T05:41:12.043Z,0.00
2023-02-02T05:42:12.032Z,0.00
2023-02-02T05:43:12.008Z,0.00
2023-02-02T05:44:12.222Z,0.00
2023-02-02T05:45:11.955Z,0.00
2023-02-02T05:46:12.022Z,0.00
2023-02-02T05:47:12.045Z,0.00
2023-02-02T05:48:11.945Z,0.00
2023-02-02T05:49:11.963Z,0.00
2023-02-02T05:50:11.904Z,0.00
2023-02-02T05:51:11.949Z,0.00
2023-02-02T05:52:11.838Z,0.00
2023-02-02T05:53:11.954Z,0.00
2023-02-02T05:54:11.850Z,0.00
2023-02-02T05:55:11.960Z,0.00
2023-02-02T05:56:11.852Z,0.00
2023-02-02T05:57:12.535Z,0.00
2023-02-02T05:58:11.882Z,0.00
2023-02-02T05:59:11.832Z,0.00
2023-02-02T06:00:11.773Z,0.00
2023-02-02T06:01:11.827Z,0.00
2023-02-02T06:02:11.819Z,0.00
2023-02-02T06:03:11.835Z,0.00
2023-02-02T06:04:11.901Z,0.00
2023-02-02T06:05:11.736Z,0.00
2023-02-02T06:06:11.706Z,0.00
2023-02-02T06:07:11.735Z,0.00
2023-02-02T06:08:11.701Z,0.00
2023-02-02T06:09:11.695Z,0.00
2023-02-02T06:10:11.724Z,0.00
2023-02-02T06:11:11.771Z,0.00
2023-02-02T06:12:14.878Z,0.00
2023-02-02T06:13:21.485Z,0.00
2023-02-02T06:14:21.488Z,0.00
2023-02-02T06:15:21.480Z,0.00
2023-02-02T06:16:21.496Z,0.00
2023-02-02T06:17:11.630Z,0.00
2023-02-02T06:18:11.581Z,0.00
2023-02-02T06:19:11.640Z,0.00
2023-02-02T06:20:11.615Z,0.00
2023-02-02T06:21:11.610Z,0.00
2023-02-02T06:22:11.551Z,0.00
2023-02-02T06:23:11.581Z,0.00
2023-02-02T06:24:11.565Z,0.00
2023-02-02T06:25:11.523Z,0.00
2023-02-02T06:26:11.510Z,0.00
2023-02-02T06:27:11.541Z,0.00
2023-02-02T06:28:11.506Z,0.00
2023-02-02T06:29:11.473Z,0.00
2023-02-02T06:30:11.504Z,0.00
2023-02-02T06:31:11.533Z,0.00
2023-02-02T06:32:11.482Z,0.00
2023-02-02T06:33:11.400Z,0.00
2023-02-02T06:34:11.432Z,0.00
2023-02-02T06:35:18.821Z,0.00
2023-02-02T06:36:11.450Z,0.00
2023-02-02T06:37:11.350Z,0.00
2023-02-02T06:38:11.494Z,0.00
2023-02-02T06:39:18.861Z,0.00
2023-02-02T06:40:11.351Z,0.00
2023-02-02T06:41:11.272Z,0.00
2023-02-02T06:42:20.875Z,0.00
2023-02-02T06:43:12.243Z,0.00
2023-02-02T06:44:11.284Z,0.00
2023-02-02T06:45:11.227Z,0.00
2023-02-02T06:46:11.284Z,0.00
2023-02-02T06:47:11.244Z,0.00
2023-02-02T06:48:11.210Z,4.00
2023-02-02T06:49:11.195Z,4.00
2023-02-02T06:50:11.743Z,4.00
2023-02-02T06:51:11.162Z,0.00
2023-02-02T06:52:11.193Z,0.00
2023-02-02T06:53:11.131Z,4.00
2023-02-02T06:54:11.152Z,4.00
2023-02-02T06:55:11.116Z,4.00
2023-02-02T06:56:11.255Z,8.00
2023-02-02T06:57:11.101Z,8.00
2023-02-02T06:58:11.132Z,4.00
2023-02-02T06:59:11.075Z,8.00
2023-02-02T07:00:11.105Z,8.00
2023-02-02T07:01:11.155Z,12.00
2023-02-02T07:02:11.099Z,8.00
2023-02-02T07:03:11.831Z,12.00
2023-02-02T07:04:11.025Z,16.00
2023-02-02T07:05:11.046Z,16.00
2023-02-02T07:06:11.040Z,16.00
2023-02-02T07:07:11.004Z,20.00
2023-02-02T07:08:11.002Z,16.00
2023-02-02T07:09:10.996Z,20.00
2023-02-02T07:11:14.237Z,24.00
2023-02-02T07:11:15.779Z,24.00
2023-02-02T07:12:11.044Z,36.00
2023-02-02T07:13:10.902Z,24.00
2023-02-02T07:14:10.920Z,36.00
2023-02-02T07:15:10.871Z,28.00
2023-02-02T07:16:10.908Z,28.00
2023-02-02T07:17:10.861Z,32.00
2023-02-02T07:18:10.884Z,36.00
2023-02-02T07:19:10.876Z,36.00
2023-02-02T07:20:10.852Z,40.00
2023-02-02T07:21:10.819Z,48.00
2023-02-02T07:22:10.885Z,44.00
2023-02-02T07:23:10.802Z,48.00
2023-02-02T07:24:10.889Z,40.00
2023-02-02T07:25:10.760Z,56.00
2023-02-02T07:26:10.794Z,52.00
2023-02-02T07:27:10.758Z,64.00
2023-02-02T07:28:11.431Z,72.00
2023-02-02T07:29:10.744Z,84.00
2023-02-02T07:30:10.752Z,68.00
2023-02-02T07:31:10.987Z,72.00
2023-02-02T07:32:10.709Z,68.00
2023-02-02T07:33:10.681Z,56.00
2023-02-02T07:34:10.710Z,72.00
2023-02-02T07:35:10.802Z,72.00
2023-02-02T07:36:10.657Z,76.00
2023-02-02T07:37:10.620Z,76.00
2023-02-02T07:38:10.914Z,76.00
2023-02-02T07:39:10.822Z,88.00
2023-02-02T07:40:10.683Z,96.00
2023-02-02T07:41:11.072Z,104.00
2023-02-02T07:42:10.601Z,112.00
2023-02-02T07:43:10.551Z,160.00
2023-02-02T07:44:10.646Z,160.00
2023-02-02T07:45:27.086Z,112.00
2023-02-02T07:46:11.602Z,128.00
2023-02-02T07:47:10.504Z,140.00
2023-02-02T07:48:10.568Z,180.00
2023-02-02T07:49:10.527Z,180.00
2023-02-02T07:50:10.660Z,152.00
2023-02-02T07:51:10.519Z,252.00
2023-02-02T07:52:10.523Z,176.00
2023-02-02T07:53:10.528Z,140.00
2023-02-02T07:54:10.458Z,156.00
2023-02-02T07:55:14.737Z,176.00
2023-02-02T07:56:10.550Z,180.00
2023-02-02T07:57:10.428Z,160.00
2023-02-02T07:58:10.397Z,168.00
2023-02-02T07:59:10.368Z,156.00
2023-02-02T08:00:10.387Z,132.00
2023-02-02T08:01:10.504Z,128.00
2023-02-02T08:02:10.379Z,140.00
2023-02-02T08:03:10.363Z,156.00
2023-02-02T08:04:10.357Z,172.00
2023-02-02T08:05:10.307Z,168.00
2023-02-02T08:06:10.307Z,192.00
2023-02-02T08:07:10.327Z,260.00
2023-02-02T08:08:10.295Z,200.00
2023-02-02T08:09:10.293Z,244.00
2023-02-02T08:10:10.266Z,268.00
2023-02-02T08:11:10.231Z,276.00
2023-02-02T08:12:10.268Z,284.00
2023-02-02T08:13:10.209Z,276.00
2023-02-02T08:14:10.230Z,272.00
2023-02-02T08:15:20.512Z,252.00
2023-02-02T08:16:10.235Z,264.00
2023-02-02T08:17:10.196Z,308.00
2023-02-02T08:18:11.031Z,400.00
2023-02-02T08:19:10.690Z,388.00
2023-02-02T08:20:11.079Z,384.00
2023-02-02T08:21:10.158Z,380.00
2023-02-02T08:22:10.142Z,464.00
2023-02-02T08:23:10.088Z,428.00
2023-02-02T08:24:10.099Z,432.00
2023-02-02T08:25:10.851Z,476.00
2023-02-02T08:26:10.075Z,464.00
2023-02-02T08:27:10.051Z,524.00
2023-02-02T08:28:10.049Z,560.00
2023-02-02T08:29:10.028Z,516.00
2023-02-02T08:30:10.049Z,600.00
2023-02-02T08:31:10.088Z,552.00
2023-02-02T08:32:10.035Z,584.00
2023-02-02T08:33:09.996Z,488.00
2023-02-02T08:34:09.987Z,540.00
2023-02-02T08:35:09.957Z,568.00
2023-02-02T08:36:09.986Z,748.00
2023-02-02T08:37:09.927Z,704.00
2023-02-02T08:38:09.945Z,504.00
2023-02-02T08:39:09.904Z,632.00
2023-02-02T08:40:10.026Z,480.00
2023-02-02T08:41:09.974Z,524.00
2023-02-02T08:42:09.931Z,796.00
2023-02-02T08:43:09.862Z,596.00
2023-02-02T08:44:11.461Z,584.00
2023-02-02T08:46:04.204Z,752.00
2023-02-02T08:46:10.946Z,880.00
2023-02-02T08:47:09.890Z,704.00
2023-02-02T08:48:12.327Z,632.00
2023-02-02T08:49:09.785Z,544.00
2023-02-02T08:50:10.516Z,588.00
2023-02-02T08:51:09.786Z,696.00
2023-02-02T08:52:09.798Z,552.00
2023-02-02T08:53:10.483Z,560.00
2023-02-02T08:54:09.796Z,784.00
2023-02-02T08:55:09.724Z,752.00
2023-02-02T08:56:09.782Z,732.00
2023-02-02T08:57:09.723Z,612.00
2023-02-02T08:58:09.722Z,684.00
2023-02-02T08:59:09.683Z,968.00
2023-02-02T09:00:10.586Z,1148.00
2023-02-02T09:01:10.581Z,836.00
2023-02-02T09:02:10.423Z,712.00
2023-02-02T09:03:10.560Z,644.00
2023-02-02T09:04:09.663Z,528.00
2023-02-02T09:05:09.613Z,620.00
2023-02-02T09:06:09.650Z,920.00
2023-02-02T09:07:09.592Z,752.00
2023-02-02T09:08:09.738Z,840.00
2023-02-02T09:09:10.007Z,624.00
2023-02-02T09:10:09.583Z,952.00
2023-02-02T09:11:09.552Z,620.00
2023-02-02T09:12:09.593Z,776.00
2023-02-02T09:13:10.133Z,776.00
2023-02-02T09:14:09.547Z,912.00
2023-02-02T09:15:10.423Z,584.00
2023-02-02T09:16:09.582Z,764.00
2023-02-02T09:17:09.652Z,632.00
2023-02-02T09:18:09.508Z,784.00
2023-02-02T09:19:09.442Z,1148.00
2023-02-02T09:20:09.463Z,1124.00
2023-02-02T09:21:10.353Z,1160.00
2023-02-02T09:22:10.245Z,1188.00
2023-02-02T09:23:09.429Z,1288.00
2023-02-02T09:24:09.413Z,1616.00
2023-02-02T09:25:09.572Z,1124.00
2023-02-02T09:26:10.130Z,1496.00
2023-02-02T09:27:09.376Z,1308.00
2023-02-02T09:28:09.375Z,1308.00
2023-02-02T09:29:09.346Z,1484.00
2023-02-02T09:30:09.382Z,1444.00
2023-02-02T09:31:09.359Z,1516.00
2023-02-02T09:32:09.405Z,1212.00
2023-02-02T09:33:09.300Z,1260.00
2023-02-02T09:34:09.878Z,1156.00
2023-02-02T09:35:09.288Z,1548.00
2023-02-02T09:36:09.577Z,1348.00
2023-02-02T09:37:09.253Z,1340.00
2023-02-02T09:38:09.268Z,1356.00
2023-02-02T09:39:09.231Z,1304.00
2023-02-02T09:40:10.069Z,1560.00
2023-02-02T09:41:09.229Z,1304.00
2023-02-02T09:42:09.303Z,1612.00
2023-02-02T09:43:09.212Z,1232.00
2023-02-02T09:44:09.197Z,1148.00
2023-02-02T09:45:09.329Z,1220.00
2023-02-02T09:46:09.185Z,1268.00
2023-02-02T09:47:09.131Z,1580.00
2023-02-02T09:48:09.161Z,1236.00
2023-02-02T09:49:09.119Z,2092.00
2023-02-02T09:50:09.156Z,1020.00
2023-02-02T09:51:09.095Z,1488.00
2023-02-02T09:52:09.119Z,1688.00
2023-02-02T09:53:09.100Z,1388.00
2023-02-02T09:54:09.100Z,1536.00
2023-02-02T09:55:09.289Z,1584.00
2023-02-02T09:56:09.062Z,1288.00
2023-02-02T09:57:09.031Z,1540.00
2023-02-02T09:58:09.061Z,1740.00
2023-02-02T09:59:19.206Z,1496.00
2023-02-02T10:00:10.019Z,1876.00
2023-02-02T10:01:09.001Z,1784.00
2023-02-02T10:02:09.747Z,1344.00
2023-02-02T10:03:08.979Z,1524.00
2023-02-02T10:04:09.022Z,2000.00
2023-02-02T10:05:09.251Z,1908.00
2023-02-02T10:06:08.952Z,1484.00
2023-02-02T10:07:08.907Z,1416.00
2023-02-02T10:08:08.933Z,1432.00
2023-02-02T10:09:08.892Z,1488.00
2023-02-02T10:10:08.942Z,1464.00
2023-02-02T10:11:08.889Z,1440.00
2023-02-02T10:12:09.653Z,2164.00
2023-02-02T10:13:08.839Z,1884.00
2023-02-02T10:14:09.124Z,1976.00
2023-02-02T10:15:08.953Z,2208.00
2023-02-02T10:16:08.911Z,2404.00
2023-02-02T10:17:08.799Z,1908.00
2023-02-02T10:18:08.819Z,1732.00
2023-02-02T10:19:08.781Z,3076.00
2023-02-02T10:20:08.837Z,2392.00
2023-02-02T10:21:08.767Z,1600.00
2023-02-02T10:22:09.268Z,1920.00
2023-02-02T10:23:08.748Z,2084.00
2023-02-02T10:24:08.769Z,2152.00
2023-02-02T10:25:08.701Z,1896.00
2023-02-02T10:26:08.745Z,1376.00
2023-02-02T10:27:08.762Z,1552.00
2023-02-02T10:28:08.716Z,2472.00
2023-02-02T10:29:08.676Z,2452.00
2023-02-02T10:30:08.700Z,1948.00
2023-02-02T10:31:08.726Z,1524.00
2023-02-02T10:32:08.735Z,1776.00
2023-02-02T10:33:08.625Z,2424.00
2023-02-02T10:34:08.635Z,2284.00
2023-02-02T10:35:14.033Z,2144.00
2023-02-02T10:36:09.616Z,2132.00
2023-02-02T10:37:08.590Z,2888.00
2023-02-02T10:38:08.604Z,2664.00
2023-02-02T10:39:08.555Z,2344.00
2023-02-02T10:40:08.602Z,2188.00
2023-02-02T10:41:08.535Z,2928.00
2023-02-02T10:42:08.556Z,2976.00
2023-02-02T10:43:08.527Z,2388.00
2023-02-02T10:44:08.540Z,2720.00
2023-02-02T10:45:08.536Z,2284.00
2023-02-02T10:46:08.500Z,2348.00
2023-02-02T10:47:08.485Z,1896.00
2023-02-02T10:48:08.499Z,1972.00
2023-02-02T10:49:08.497Z,2212.00
2023-02-02T10:50:08.428Z,2312.00
2023-02-02T10:51:08.445Z,2072.00
2023-02-02T10:52:08.432Z,2480.00
2023-02-02T10:53:08.424Z,3304.00
2023-02-02T10:54:08.394Z,2144.00
2023-02-02T10:55:08.403Z,1988.00
2023-02-02T10:56:08.466Z,2140.00
2023-02-02T10:57:08.366Z,2280.00
2023-02-02T10:58:08.350Z,2000.00
2023-02-02T10:59:08.418Z,2276.00
2023-02-02T11:00:08.316Z,3116.00
2023-02-02T11:01:08.462Z,2624.00
2023-02-02T11:02:19.948Z,2940.00
2023-02-02T11:03:09.381Z,2380.00
2023-02-02T11:04:08.836Z,2660.00
2023-02-02T11:05:08.535Z,2932.00
2023-02-02T11:06:08.261Z,3064.00
2023-02-02T11:07:08.284Z,2324.00
2023-02-02T11:08:08.233Z,2076.00
2023-02-02T11:09:08.253Z,1956.00
2023-02-02T11:10:08.233Z,2464.00
2023-02-02T11:11:08.231Z,2316.00
2023-02-02T11:12:08.205Z,2184.00
2023-02-02T11:13:08.194Z,2020.00
2023-02-02T11:14:08.172Z,1968.00
2023-02-02T11:15:08.176Z,1800.00
2023-02-02T11:16:08.195Z,1476.00
2023-02-02T11:17:08.152Z,1520.00
2023-02-02T11:18:08.123Z,1384.00
2023-02-02T11:19:08.152Z,1492.00
2023-02-02T11:20:08.892Z,1660.00
2023-02-02T11:21:08.132Z,1692.00
2023-02-02T11:22:08.092Z,1796.00
2023-02-02T11:23:08.092Z,1932.00
2023-02-02T11:24:08.051Z,1200.00
2023-02-02T11:25:08.075Z,1408.00
2023-02-02T11:26:08.059Z,1880.00
2023-02-02T11:27:08.755Z,2184.00
2023-02-02T11:28:08.021Z,1692.00
2023-02-02T11:29:08.022Z,1876.00
2023-02-02T11:30:08.005Z,1464.00
2023-02-02T11:31:08.080Z,1884.00
2023-02-02T11:32:07.970Z,1772.00
2023-02-02T11:33:07.995Z,1844.00
2023-02-02T11:34:07.962Z,1916.00
2023-02-02T11:35:07.955Z,3232.00
2023-02-02T11:36:08.154Z,2732.00
2023-02-02T11:37:08.862Z,2152.00
2023-02-02T11:38:07.936Z,2088.00
2023-02-02T11:39:07.911Z,1936.00
2023-02-02T11:40:07.873Z,1928.00
2023-02-02T11:41:07.909Z,1900.00
2023-02-02T11:42:07.862Z,1700.00
2023-02-02T11:43:07.873Z,2552.00
2023-02-02T11:44:07.847Z,2464.00
2023-02-02T11:45:08.560Z,1876.00
2023-02-02T11:46:07.920Z,1776.00
2023-02-02T11:47:07.824Z,1512.00
2023-02-02T11:48:07.791Z,1424.00
2023-02-02T11:49:07.791Z,1528.00
2023-02-02T11:50:07.759Z,2164.00
2023-02-02T11:51:07.829Z,1992.00
2023-02-02T11:52:07.818Z,2336.00
2023-02-02T11:53:07.780Z,1672.00
2023-02-02T11:54:07.992Z,1540.00
2023-02-02T11:55:07.731Z,2044.00
2023-02-02T11:56:07.703Z,1780.00
2023-02-02T11:57:07.780Z,2240.00
2023-02-02T11:58:07.680Z,1584.00
2023-02-02T11:59:07.698Z,1756.00
2023-02-02T12:00:07.651Z,1472.00
2023-02-02T12:01:07.661Z,1736.00
2023-02-02T12:02:07.682Z,1548.00
2023-02-02T12:03:07.639Z,1240.00
2023-02-02T12:04:07.714Z,1312.00
2023-02-02T12:05:08.415Z,1348.00
2023-02-02T12:06:07.601Z,1436.00
2023-02-02T12:07:07.596Z,1088.00
2023-02-02T12:08:07.568Z,1032.00
2023-02-02T12:09:07.577Z,1056.00
2023-02-02T12:10:07.544Z,932.00
2023-02-02T12:11:07.588Z,1136.00
2023-02-02T12:12:07.529Z,1156.00
2023-02-02T12:13:07.529Z,1076.00
2023-02-02T12:14:07.550Z,1212.00
2023-02-02T12:15:07.514Z,1204.00
2023-02-02T12:16:09.069Z,1112.00
2023-02-02T12:17:08.311Z,1204.00
2023-02-02T12:18:08.059Z,1000.00
2023-02-02T12:19:07.479Z,984.00
2023-02-02T12:20:07.539Z,1156.00
2023-02-02T12:21:07.461Z,1224.00
2023-02-02T12:22:07.987Z,992.00
2023-02-02T12:23:07.425Z,1152.00
2023-02-02T12:24:07.412Z,1160.00
2023-02-02T12:25:07.434Z,2152.00
2023-02-02T12:26:07.373Z,1704.00
2023-02-02T12:27:07.380Z,1536.00
2023-02-02T12:28:07.338Z,1332.00
2023-02-02T12:29:07.351Z,1236.00
2023-02-02T12:30:07.329Z,1244.00
2023-02-02T12:31:07.374Z,1252.00
2023-02-02T12:32:07.375Z,1312.00
2023-02-02T12:33:07.307Z,1300.00
2023-02-02T12:34:07.351Z,1156.00
2023-02-02T12:35:07.329Z,1284.00
2023-02-02T12:36:07.285Z,1132.00
2023-02-02T12:37:07.264Z,1000.00
2023-02-02T12:38:08.100Z,776.00
2023-02-02T12:39:07.240Z,884.00
2023-02-02T12:40:07.199Z,972.00
2023-02-02T12:41:07.226Z,1004.00
2023-02-02T12:42:07.204Z,1088.00
2023-02-02T12:43:07.205Z,1252.00
2023-02-02T12:44:07.156Z,1384.00
2023-02-02T12:45:07.176Z,1396.00
2023-02-02T12:46:07.196Z,1184.00
2023-02-02T12:47:07.148Z,1076.00
2023-02-02T12:48:07.169Z,988.00
2023-02-02T12:49:07.178Z,1016.00